sensor_id;sensor_type;location;lat;lon;timestamp;P1;durP1;ratioP1;P2;durP2;ratioP2
60088;SDS011;45961;53.574;55.878;2022-07-29T00:00:24;34.30;;;26.33;;
60088;SDS011;45961;53.574;55.878;2022-07-29T00:01:25;31.30;;;27.25;;
60088;SDS011;45961;53.574;55.878;2022-07-29T00:02:27;31.52;;;26.88;;
60088;SDS011;45961;53.574;55.878;2022-07-29T00:03:28;31.90;;;27.42;;
60088;SDS011;45961;53.574;55.878;2022-07-29T00:04:29;31.73;;;27.00;;
60088;SDS011;45961;53.574;55.878;2022-07-29T00:05:30;31.17;;;27.20;;
60088;SDS011;45961;53.574;55.878;2022-07-29T00:06:31;33.42;;;27.98;;
60088;SDS011;45961;53.574;55.878;2022-07-29T00:07:32;35.50;;;27.85;;
60088;SDS011;45961;53.574;55.878;2022-07-29T00:08:33;31.38;;;27.98;;
60088;SDS011;45961;53.574;55.878;2022-07-29T00:09:34;33.05;;;28.73;;
60088;SDS011;45961;53.574;55.878;2022-07-29T00:10:35;32.45;;;27.50;;
60088;SDS011;45961;53.574;55.878;2022-07-29T00:11:36;36.17;;;31.33;;
60088;SDS011;45961;53.574;55.878;2022-07-29T00:12:37;34.70;;;28.27;;
60088;SDS011;45961;53.574;55.878;2022-07-29T00:13:38;37.20;;;29.00;;
60088;SDS011;45961;53.574;55.878;2022-07-29T00:14:39;32.80;;;27.48;;
60088;SDS011;45961;53.574;55.878;2022-07-29T00:15:40;30.15;;;26.65;;
60088;SDS011;45961;53.574;55.878;2022-07-29T00:16:43;31.77;;;27.92;;
60088;SDS011;45961;53.574;55.878;2022-07-29T00:17:43;35.90;;;29.08;;
60088;SDS011;45961;53.574;55.878;2022-07-29T00:18:46;34.80;;;28.50;;
60088;SDS011;45961;53.574;55.878;2022-07-29T00:19:47;32.08;;;27.90;;
60088;SDS011;45961;53.574;55.878;2022-07-29T00:20:48;32.65;;;27.60;;
60088;SDS011;45961;53.574;55.878;2022-07-29T00:21:49;34.78;;;26.98;;
60088;SDS011;45961;53.574;55.878;2022-07-29T00:22:50;31.70;;;27.08;;
60088;SDS011;45961;53.574;55.878;2022-07-29T00:23:50;33.30;;;27.55;;
60088;SDS011;45961;53.574;55.878;2022-07-29T00:24:51;35.10;;;28.67;;
60088;SDS011;45961;53.574;55.878;2022-07-29T00:25:53;32.95;;;28.40;;
60088;SDS011;45961;53.574;55.878;2022-07-29T00:26:54;35.00;;;28.60;;
60088;SDS011;45961;53.574;55.878;2022-07-29T00:27:55;35.58;;;27.33;;
60088;SDS011;45961;53.574;55.878;2022-07-29T00:28:56;31.30;;;27.85;;
60088;SDS011;45961;53.574;55.878;2022-07-29T00:29:57;32.60;;;28.02;;
60088;SDS011;45961;53.574;55.878;2022-07-29T00:30:58;35.50;;;26.98;;
60088;SDS011;45961;53.574;55.878;2022-07-29T00:32:00;33.50;;;28.20;;
60088;SDS011;45961;53.574;55.878;2022-07-29T00:33:02;32.78;;;28.13;;
60088;SDS011;45961;53.574;55.878;2022-07-29T00:34:03;33.67;;;28.15;;
60088;SDS011;45961;53.574;55.878;2022-07-29T00:35:05;32.20;;;28.75;;
60088;SDS011;45961;53.574;55.878;2022-07-29T00:36:25;36.20;;;28.73;;
60088;SDS011;45961;53.574;55.878;2022-07-29T00:37:26;34.50;;;27.02;;
60088;SDS011;45961;53.574;55.878;2022-07-29T00:38:27;34.58;;;28.50;;
60088;SDS011;45961;53.574;55.878;2022-07-29T00:39:28;32.75;;;26.92;;
60088;SDS011;45961;53.574;55.878;2022-07-29T00:40:30;34.45;;;28.52;;
60088;SDS011;45961;53.574;55.878;2022-07-29T00:41:31;33.83;;;28.23;;
60088;SDS011;45961;53.574;55.878;2022-07-29T00:42:41;31.80;;;28.15;;
60088;SDS011;45961;53.574;55.878;2022-07-29T00:43:43;35.08;;;27.90;;
60088;SDS011;45961;53.574;55.878;2022-07-29T00:44:44;34.28;;;28.38;;
60088;SDS011;45961;53.574;55.878;2022-07-29T00:45:45;35.17;;;27.00;;
60088;SDS011;45961;53.574;55.878;2022-07-29T00:46:46;31.92;;;27.95;;
60088;SDS011;45961;53.574;55.878;2022-07-29T00:47:47;31.85;;;28.45;;
60088;SDS011;45961;53.574;55.878;2022-07-29T00:48:48;30.60;;;25.63;;
60088;SDS011;45961;53.574;55.878;2022-07-29T00:49:49;33.78;;;27.67;;
60088;SDS011;45961;53.574;55.878;2022-07-29T00:50:50;34.38;;;27.27;;
60088;SDS011;45961;53.574;55.878;2022-07-29T00:51:51;32.95;;;28.67;;
60088;SDS011;45961;53.574;55.878;2022-07-29T00:52:52;34.78;;;27.08;;
60088;SDS011;45961;53.574;55.878;2022-07-29T00:53:53;32.15;;;28.02;;
60088;SDS011;45961;53.574;55.878;2022-07-29T00:54:54;30.63;;;27.33;;
60088;SDS011;45961;53.574;55.878;2022-07-29T00:55:57;32.72;;;27.80;;
60088;SDS011;45961;53.574;55.878;2022-07-29T00:56:58;31.30;;;27.42;;
60088;SDS011;45961;53.574;55.878;2022-07-29T00:58:00;30.90;;;26.77;;
60088;SDS011;45961;53.574;55.878;2022-07-29T00:59:01;31.17;;;26.58;;
60088;SDS011;45961;53.574;55.878;2022-07-29T01:00:06;32.85;;;28.67;;
60088;SDS011;45961;53.574;55.878;2022-07-29T01:01:09;31.15;;;26.27;;
60088;SDS011;45961;53.574;55.878;2022-07-29T01:02:10;31.30;;;27.38;;
60088;SDS011;45961;53.574;55.878;2022-07-29T01:04:13;33.80;;;26.40;;
60088;SDS011;45961;53.574;55.878;2022-07-29T01:05:14;31.23;;;26.98;;
60088;SDS011;45961;53.574;55.878;2022-07-29T01:06:17;32.33;;;27.25;;
60088;SDS011;45961;53.574;55.878;2022-07-29T01:07:19;31.15;;;27.27;;
60088;SDS011;45961;53.574;55.878;2022-07-29T01:08:20;32.97;;;27.15;;
60088;SDS011;45961;53.574;55.878;2022-07-29T01:09:23;32.85;;;28.58;;
60088;SDS011;45961;53.574;55.878;2022-07-29T01:10:24;35.20;;;28.10;;
60088;SDS011;45961;53.574;55.878;2022-07-29T01:11:26;30.90;;;27.60;;
60088;SDS011;45961;53.574;55.878;2022-07-29T01:13:29;33.95;;;27.67;;
60088;SDS011;45961;53.574;55.878;2022-07-29T01:14:31;31.52;;;27.52;;
60088;SDS011;45961;53.574;55.878;2022-07-29T01:15:33;32.75;;;27.17;;
60088;SDS011;45961;53.574;55.878;2022-07-29T01:16:43;32.33;;;27.40;;
60088;SDS011;45961;53.574;55.878;2022-07-29T01:18:22;32.55;;;27.52;;
60088;SDS011;45961;53.574;55.878;2022-07-29T01:22:25;33.60;;;27.65;;
60088;SDS011;45961;53.574;55.878;2022-07-29T01:25:02;33.42;;;28.13;;
60088;SDS011;45961;53.574;55.878;2022-07-29T01:30:16;34.55;;;28.45;;
60088;SDS011;45961;53.574;55.878;2022-07-29T01:31:22;33.50;;;27.58;;
60088;SDS011;45961;53.574;55.878;2022-07-29T01:32:29;33.90;;;29.48;;
60088;SDS011;45961;53.574;55.878;2022-07-29T01:33:34;32.47;;;27.50;;
60088;SDS011;45961;53.574;55.878;2022-07-29T01:34:53;31.67;;;27.88;;
60088;SDS011;45961;53.574;55.878;2022-07-29T01:36:07;32.92;;;27.77;;
60088;SDS011;45961;53.574;55.878;2022-07-29T01:38:16;33.05;;;27.98;;
60088;SDS011;45961;53.574;55.878;2022-07-29T01:41:37;33.88;;;28.52;;
60088;SDS011;45961;53.574;55.878;2022-07-29T01:42:45;37.05;;;29.08;;
60088;SDS011;45961;53.574;55.878;2022-07-29T01:43:57;35.55;;;27.92;;
60088;SDS011;45961;53.574;55.878;2022-07-29T01:46:32;36.03;;;28.67;;
60088;SDS011;45961;53.574;55.878;2022-07-29T01:47:39;34.72;;;28.70;;
60088;SDS011;45961;53.574;55.878;2022-07-29T01:48:47;33.42;;;27.30;;
60088;SDS011;45961;53.574;55.878;2022-07-29T01:49:54;33.10;;;28.55;;
60088;SDS011;45961;53.574;55.878;2022-07-29T01:50:58;33.35;;;28.48;;
60088;SDS011;45961;53.574;55.878;2022-07-29T01:52:10;32.22;;;27.65;;
60088;SDS011;45961;53.574;55.878;2022-07-29T01:53:18;29.65;;;26.27;;
60088;SDS011;45961;53.574;55.878;2022-07-29T01:54:29;29.25;;;26.02;;
60088;SDS011;45961;53.574;55.878;2022-07-29T01:55:35;31.83;;;26.42;;
60088;SDS011;45961;53.574;55.878;2022-07-29T01:56:39;29.67;;;26.30;;
60088;SDS011;45961;53.574;55.878;2022-07-29T01:57:45;32.35;;;26.58;;
60088;SDS011;45961;53.574;55.878;2022-07-29T01:58:49;32.20;;;24.98;;
60088;SDS011;45961;53.574;55.878;2022-07-29T01:59:52;27.95;;;24.77;;
60088;SDS011;45961;53.574;55.878;2022-07-29T02:00:56;29.98;;;26.10;;
60088;SDS011;45961;53.574;55.878;2022-07-29T02:01:58;28.02;;;25.02;;
60088;SDS011;45961;53.574;55.878;2022-07-29T02:03:05;28.85;;;25.88;;
60088;SDS011;45961;53.574;55.878;2022-07-29T02:04:10;30.25;;;25.15;;
60088;SDS011;45961;53.574;55.878;2022-07-29T02:05:14;29.90;;;25.50;;
60088;SDS011;45961;53.574;55.878;2022-07-29T02:06:17;25.77;;;22.98;;
60088;SDS011;45961;53.574;55.878;2022-07-29T02:07:21;29.88;;;25.42;;
60088;SDS011;45961;53.574;55.878;2022-07-29T02:08:24;27.75;;;24.55;;
60088;SDS011;45961;53.574;55.878;2022-07-29T02:09:27;27.80;;;24.48;;
60088;SDS011;45961;53.574;55.878;2022-07-29T02:10:34;29.02;;;23.75;;
60088;SDS011;45961;53.574;55.878;2022-07-29T02:11:38;35.15;;;26.17;;
60088;SDS011;45961;53.574;55.878;2022-07-29T02:12:41;30.10;;;24.73;;
60088;SDS011;45961;53.574;55.878;2022-07-29T02:14:04;32.53;;;24.58;;
60088;SDS011;45961;53.574;55.878;2022-07-29T02:15:07;29.45;;;24.98;;
60088;SDS011;45961;53.574;55.878;2022-07-29T02:16:10;27.65;;;24.15;;
60088;SDS011;45961;53.574;55.878;2022-07-29T02:17:13;28.83;;;24.00;;
60088;SDS011;45961;53.574;55.878;2022-07-29T02:18:22;27.77;;;23.27;;
60088;SDS011;45961;53.574;55.878;2022-07-29T02:19:25;25.52;;;22.83;;
60088;SDS011;45961;53.574;55.878;2022-07-29T02:20:28;27.42;;;23.92;;
60088;SDS011;45961;53.574;55.878;2022-07-29T02:21:30;29.90;;;23.92;;
60088;SDS011;45961;53.574;55.878;2022-07-29T02:22:33;26.20;;;22.35;;
60088;SDS011;45961;53.574;55.878;2022-07-29T02:23:37;27.35;;;24.25;;
60088;SDS011;45961;53.574;55.878;2022-07-29T02:24:40;31.40;;;22.70;;
60088;SDS011;45961;53.574;55.878;2022-07-29T02:25:42;26.75;;;23.92;;
60088;SDS011;45961;53.574;55.878;2022-07-29T02:26:44;27.13;;;23.90;;
60088;SDS011;45961;53.574;55.878;2022-07-29T02:27:46;25.70;;;23.00;;
60088;SDS011;45961;53.574;55.878;2022-07-29T02:28:49;30.67;;;23.20;;
60088;SDS011;45961;53.574;55.878;2022-07-29T02:29:54;26.48;;;22.52;;
60088;SDS011;45961;53.574;55.878;2022-07-29T02:31:01;23.77;;;21.23;;
60088;SDS011;45961;53.574;55.878;2022-07-29T02:32:04;24.08;;;20.88;;
60088;SDS011;45961;53.574;55.878;2022-07-29T02:33:07;22.75;;;20.33;;
60088;SDS011;45961;53.574;55.878;2022-07-29T02:34:10;27.42;;;20.10;;
60088;SDS011;45961;53.574;55.878;2022-07-29T02:35:13;21.90;;;19.38;;
60088;SDS011;45961;53.574;55.878;2022-07-29T02:36:16;25.58;;;20.13;;
60088;SDS011;45961;53.574;55.878;2022-07-29T02:37:19;26.17;;;21.50;;
60088;SDS011;45961;53.574;55.878;2022-07-29T02:38:21;26.20;;;20.35;;
60088;SDS011;45961;53.574;55.878;2022-07-29T02:39:44;23.33;;;20.45;;
60088;SDS011;45961;53.574;55.878;2022-07-29T02:40:45;21.60;;;19.27;;
60088;SDS011;45961;53.574;55.878;2022-07-29T02:41:52;26.63;;;21.30;;
60088;SDS011;45961;53.574;55.878;2022-07-29T02:42:59;24.10;;;20.92;;
60088;SDS011;45961;53.574;55.878;2022-07-29T02:44:06;23.35;;;20.75;;
60088;SDS011;45961;53.574;55.878;2022-07-29T02:45:11;23.10;;;20.65;;
60088;SDS011;45961;53.574;55.878;2022-07-29T02:46:13;25.02;;;20.67;;
60088;SDS011;45961;53.574;55.878;2022-07-29T02:48:56;28.95;;;22.60;;
60088;SDS011;45961;53.574;55.878;2022-07-29T02:50:27;26.40;;;21.80;;
60088;SDS011;45961;53.574;55.878;2022-07-29T02:51:43;26.13;;;21.15;;
60088;SDS011;45961;53.574;55.878;2022-07-29T02:54:55;27.33;;;22.73;;
60088;SDS011;45961;53.574;55.878;2022-07-29T02:56:10;27.38;;;23.17;;
60088;SDS011;45961;53.574;55.878;2022-07-29T02:57:58;28.17;;;23.23;;
60088;SDS011;45961;53.574;55.878;2022-07-29T02:58:46;28.40;;;23.80;;
60088;SDS011;45961;53.574;55.878;2022-07-29T02:59:52;28.73;;;23.02;;
60088;SDS011;45961;53.574;55.878;2022-07-29T03:00:59;25.98;;;23.23;;
60088;SDS011;45961;53.574;55.878;2022-07-29T03:02:45;31.30;;;24.20;;
60088;SDS011;45961;53.574;55.878;2022-07-29T03:03:51;28.45;;;23.40;;
60088;SDS011;45961;53.574;55.878;2022-07-29T03:04:54;33.58;;;22.77;;
60088;SDS011;45961;53.574;55.878;2022-07-29T03:05:57;30.10;;;22.38;;
60088;SDS011;45961;53.574;55.878;2022-07-29T03:07:00;30.65;;;22.75;;
60088;SDS011;45961;53.574;55.878;2022-07-29T03:08:04;29.42;;;24.55;;
60088;SDS011;45961;53.574;55.878;2022-07-29T03:09:07;30.73;;;23.65;;
60088;SDS011;45961;53.574;55.878;2022-07-29T03:10:10;32.30;;;22.75;;
60088;SDS011;45961;53.574;55.878;2022-07-29T03:11:12;31.55;;;23.77;;
60088;SDS011;45961;53.574;55.878;2022-07-29T03:12:18;32.00;;;23.40;;
60088;SDS011;45961;53.574;55.878;2022-07-29T03:13:20;32.53;;;24.73;;
60088;SDS011;45961;53.574;55.878;2022-07-29T03:14:21;37.17;;;24.98;;
60088;SDS011;45961;53.574;55.878;2022-07-29T03:15:24;37.45;;;25.13;;
60088;SDS011;45961;53.574;55.878;2022-07-29T03:16:25;37.85;;;26.15;;
60088;SDS011;45961;53.574;55.878;2022-07-29T03:17:27;34.25;;;25.63;;
60088;SDS011;45961;53.574;55.878;2022-07-29T03:18:28;36.53;;;26.02;;
60088;SDS011;45961;53.574;55.878;2022-07-29T03:19:31;30.20;;;24.48;;
60088;SDS011;45961;53.574;55.878;2022-07-29T03:20:32;33.95;;;24.73;;
60088;SDS011;45961;53.574;55.878;2022-07-29T03:22:41;35.40;;;24.70;;
60088;SDS011;45961;53.574;55.878;2022-07-29T03:23:48;31.52;;;24.27;;
60088;SDS011;45961;53.574;55.878;2022-07-29T03:24:49;38.63;;;24.88;;
60088;SDS011;45961;53.574;55.878;2022-07-29T03:25:50;30.33;;;24.08;;
60088;SDS011;45961;53.574;55.878;2022-07-29T03:26:51;34.40;;;24.50;;
60088;SDS011;45961;53.574;55.878;2022-07-29T03:28:54;33.50;;;23.63;;
60088;SDS011;45961;53.574;55.878;2022-07-29T03:29:55;31.08;;;23.27;;
60088;SDS011;45961;53.574;55.878;2022-07-29T03:30:56;29.50;;;23.45;;
60088;SDS011;45961;53.574;55.878;2022-07-29T03:31:57;33.30;;;23.02;;
60088;SDS011;45961;53.574;55.878;2022-07-29T03:32:58;32.67;;;25.15;;
60088;SDS011;45961;53.574;55.878;2022-07-29T03:33:59;32.63;;;23.95;;
60088;SDS011;45961;53.574;55.878;2022-07-29T03:35:00;34.28;;;24.52;;
60088;SDS011;45961;53.574;55.878;2022-07-29T03:36:00;28.02;;;23.63;;
60088;SDS011;45961;53.574;55.878;2022-07-29T03:37:02;30.75;;;23.38;;
60088;SDS011;45961;53.574;55.878;2022-07-29T03:39:05;30.15;;;24.63;;
60088;SDS011;45961;53.574;55.878;2022-07-29T03:40:07;30.90;;;25.55;;
60088;SDS011;45961;53.574;55.878;2022-07-29T03:41:11;34.33;;;25.88;;
60088;SDS011;45961;53.574;55.878;2022-07-29T03:42:13;40.20;;;26.60;;
60088;SDS011;45961;53.574;55.878;2022-07-29T03:43:17;34.30;;;25.05;;
60088;SDS011;45961;53.574;55.878;2022-07-29T03:44:19;30.67;;;24.65;;
60088;SDS011;45961;53.574;55.878;2022-07-29T03:45:23;34.83;;;27.13;;
60088;SDS011;45961;53.574;55.878;2022-07-29T03:46:28;33.17;;;26.10;;
60088;SDS011;45961;53.574;55.878;2022-07-29T03:47:31;35.42;;;26.92;;
60088;SDS011;45961;53.574;55.878;2022-07-29T03:48:36;38.95;;;27.90;;
60088;SDS011;45961;53.574;55.878;2022-07-29T03:49:40;30.38;;;25.92;;
60088;SDS011;45961;53.574;55.878;2022-07-29T03:50:42;36.53;;;27.08;;
60088;SDS011;45961;53.574;55.878;2022-07-29T03:52:45;35.40;;;27.83;;
60088;SDS011;45961;53.574;55.878;2022-07-29T03:53:46;30.38;;;26.35;;
60088;SDS011;45961;53.574;55.878;2022-07-29T03:54:47;36.55;;;28.13;;
60088;SDS011;45961;53.574;55.878;2022-07-29T03:55:50;35.47;;;28.00;;
60088;SDS011;45961;53.574;55.878;2022-07-29T03:56:59;38.80;;;28.42;;
60088;SDS011;45961;53.574;55.878;2022-07-29T03:58:02;35.85;;;28.88;;
60088;SDS011;45961;53.574;55.878;2022-07-29T03:59:03;36.95;;;28.88;;
60088;SDS011;45961;53.574;55.878;2022-07-29T04:00:05;31.73;;;28.35;;
60088;SDS011;45961;53.574;55.878;2022-07-29T04:01:07;34.25;;;28.67;;
60088;SDS011;45961;53.574;55.878;2022-07-29T04:02:09;36.28;;;29.88;;
60088;SDS011;45961;53.574;55.878;2022-07-29T04:03:12;34.53;;;28.40;;
60088;SDS011;45961;53.574;55.878;2022-07-29T04:04:13;35.65;;;28.77;;
60088;SDS011;45961;53.574;55.878;2022-07-29T04:05:14;38.67;;;29.50;;
60088;SDS011;45961;53.574;55.878;2022-07-29T04:06:16;34.17;;;28.80;;
60088;SDS011;45961;53.574;55.878;2022-07-29T04:07:17;33.08;;;29.20;;
60088;SDS011;45961;53.574;55.878;2022-07-29T04:08:18;37.05;;;29.90;;
60088;SDS011;45961;53.574;55.878;2022-07-29T04:09:19;32.85;;;28.83;;
60088;SDS011;45961;53.574;55.878;2022-07-29T04:10:20;38.15;;;30.75;;
60088;SDS011;45961;53.574;55.878;2022-07-29T04:11:21;33.38;;;28.50;;
60088;SDS011;45961;53.574;55.878;2022-07-29T04:12:22;33.03;;;28.23;;
60088;SDS011;45961;53.574;55.878;2022-07-29T04:13:23;36.53;;;29.48;;
60088;SDS011;45961;53.574;55.878;2022-07-29T04:14:24;33.20;;;29.70;;
60088;SDS011;45961;53.574;55.878;2022-07-29T04:15:28;49.40;;;28.80;;
60088;SDS011;45961;53.574;55.878;2022-07-29T04:16:29;36.45;;;28.83;;
60088;SDS011;45961;53.574;55.878;2022-07-29T04:17:30;37.53;;;28.92;;
60088;SDS011;45961;53.574;55.878;2022-07-29T04:18:31;31.92;;;28.48;;
60088;SDS011;45961;53.574;55.878;2022-07-29T04:19:32;37.65;;;29.98;;
60088;SDS011;45961;53.574;55.878;2022-07-29T04:20:33;36.45;;;29.38;;
60088;SDS011;45961;53.574;55.878;2022-07-29T04:21:40;37.72;;;28.75;;
60088;SDS011;45961;53.574;55.878;2022-07-29T04:22:42;36.53;;;29.25;;
60088;SDS011;45961;53.574;55.878;2022-07-29T04:23:43;35.63;;;29.17;;
60088;SDS011;45961;53.574;55.878;2022-07-29T04:24:45;33.00;;;29.63;;
60088;SDS011;45961;53.574;55.878;2022-07-29T04:25:46;37.50;;;28.38;;
60088;SDS011;45961;53.574;55.878;2022-07-29T04:26:47;36.15;;;30.40;;
60088;SDS011;45961;53.574;55.878;2022-07-29T04:27:48;32.15;;;28.73;;
60088;SDS011;45961;53.574;55.878;2022-07-29T04:29:01;35.83;;;30.77;;
60088;SDS011;45961;53.574;55.878;2022-07-29T04:30:02;36.55;;;31.13;;
60088;SDS011;45961;53.574;55.878;2022-07-29T04:31:04;39.97;;;33.75;;
60088;SDS011;45961;53.574;55.878;2022-07-29T04:32:05;37.70;;;33.72;;
60088;SDS011;45961;53.574;55.878;2022-07-29T04:34:07;40.22;;;31.13;;
60088;SDS011;45961;53.574;55.878;2022-07-29T04:35:09;42.63;;;33.60;;
60088;SDS011;45961;53.574;55.878;2022-07-29T04:36:10;36.60;;;32.90;;
60088;SDS011;45961;53.574;55.878;2022-07-29T04:38:12;35.37;;;31.53;;
60088;SDS011;45961;53.574;55.878;2022-07-29T04:39:13;36.45;;;30.63;;
60088;SDS011;45961;53.574;55.878;2022-07-29T04:40:14;38.13;;;30.08;;
60088;SDS011;45961;53.574;55.878;2022-07-29T04:41:15;37.70;;;32.10;;
60088;SDS011;45961;53.574;55.878;2022-07-29T04:42:16;34.90;;;31.02;;
60088;SDS011;45961;53.574;55.878;2022-07-29T04:43:17;38.10;;;30.90;;
60088;SDS011;45961;53.574;55.878;2022-07-29T04:44:18;35.85;;;31.30;;
60088;SDS011;45961;53.574;55.878;2022-07-29T04:45:19;40.33;;;30.05;;
60088;SDS011;45961;53.574;55.878;2022-07-29T04:46:20;37.85;;;30.88;;
60088;SDS011;45961;53.574;55.878;2022-07-29T04:47:21;34.65;;;30.98;;
60088;SDS011;45961;53.574;55.878;2022-07-29T04:48:25;35.28;;;28.08;;
60088;SDS011;45961;53.574;55.878;2022-07-29T04:49:26;33.13;;;27.50;;
60088;SDS011;45961;53.574;55.878;2022-07-29T04:50:27;31.02;;;26.83;;
60088;SDS011;45961;53.574;55.878;2022-07-29T04:51:29;32.47;;;25.48;;
60088;SDS011;45961;53.574;55.878;2022-07-29T04:52:30;35.33;;;27.25;;
60088;SDS011;45961;53.574;55.878;2022-07-29T04:53:31;32.85;;;26.38;;
60088;SDS011;45961;53.574;55.878;2022-07-29T04:54:32;27.98;;;23.92;;
60088;SDS011;45961;53.574;55.878;2022-07-29T04:55:33;25.52;;;21.88;;
60088;SDS011;45961;53.574;55.878;2022-07-29T04:56:34;24.67;;;21.75;;
60088;SDS011;45961;53.574;55.878;2022-07-29T04:57:35;22.73;;;20.30;;
60088;SDS011;45961;53.574;55.878;2022-07-29T04:58:36;24.17;;;21.17;;
60088;SDS011;45961;53.574;55.878;2022-07-29T04:59:37;23.30;;;20.63;;
60088;SDS011;45961;53.574;55.878;2022-07-29T05:00:38;24.08;;;20.95;;
60088;SDS011;45961;53.574;55.878;2022-07-29T05:01:40;23.80;;;20.65;;
60088;SDS011;45961;53.574;55.878;2022-07-29T05:02:41;24.98;;;20.60;;
60088;SDS011;45961;53.574;55.878;2022-07-29T05:03:42;23.85;;;20.65;;
60088;SDS011;45961;53.574;55.878;2022-07-29T05:04:43;23.70;;;20.42;;
60088;SDS011;45961;53.574;55.878;2022-07-29T05:05:43;26.10;;;20.25;;
60088;SDS011;45961;53.574;55.878;2022-07-29T05:06:44;29.95;;;20.63;;
60088;SDS011;45961;53.574;55.878;2022-07-29T05:07:45;23.58;;;19.10;;
60088;SDS011;45961;53.574;55.878;2022-07-29T05:08:46;22.20;;;19.85;;
60088;SDS011;45961;53.574;55.878;2022-07-29T05:09:47;23.85;;;18.80;;
60088;SDS011;45961;53.574;55.878;2022-07-29T05:10:48;26.23;;;20.50;;
60088;SDS011;45961;53.574;55.878;2022-07-29T05:11:49;22.05;;;19.65;;
60088;SDS011;45961;53.574;55.878;2022-07-29T05:12:50;25.63;;;19.52;;
60088;SDS011;45961;53.574;55.878;2022-07-29T05:13:51;26.95;;;19.60;;
60088;SDS011;45961;53.574;55.878;2022-07-29T05:14:52;27.13;;;20.25;;
60088;SDS011;45961;53.574;55.878;2022-07-29T05:15:54;22.23;;;19.92;;
60088;SDS011;45961;53.574;55.878;2022-07-29T05:16:55;24.92;;;20.33;;
60088;SDS011;45961;53.574;55.878;2022-07-29T05:17:57;24.92;;;20.25;;
60088;SDS011;45961;53.574;55.878;2022-07-29T05:18:58;22.95;;;20.45;;
60088;SDS011;45961;53.574;55.878;2022-07-29T05:19:59;22.85;;;20.27;;
60088;SDS011;45961;53.574;55.878;2022-07-29T05:21:00;23.60;;;20.67;;
60088;SDS011;45961;53.574;55.878;2022-07-29T05:22:01;23.50;;;21.02;;
60088;SDS011;45961;53.574;55.878;2022-07-29T05:23:02;21.85;;;18.60;;
60088;SDS011;45961;53.574;55.878;2022-07-29T05:25:04;23.63;;;19.60;;
60088;SDS011;45961;53.574;55.878;2022-07-29T05:26:06;22.50;;;19.60;;
60088;SDS011;45961;53.574;55.878;2022-07-29T05:27:07;22.65;;;19.98;;
60088;SDS011;45961;53.574;55.878;2022-07-29T05:28:08;25.45;;;19.88;;
60088;SDS011;45961;53.574;55.878;2022-07-29T05:29:08;27.65;;;21.27;;
60088;SDS011;45961;53.574;55.878;2022-07-29T05:30:10;29.23;;;20.90;;
60088;SDS011;45961;53.574;55.878;2022-07-29T05:31:11;25.33;;;19.38;;
60088;SDS011;45961;53.574;55.878;2022-07-29T05:32:12;23.70;;;18.90;;
60088;SDS011;45961;53.574;55.878;2022-07-29T05:33:13;26.98;;;19.77;;
60088;SDS011;45961;53.574;55.878;2022-07-29T05:34:14;23.08;;;19.60;;
60088;SDS011;45961;53.574;55.878;2022-07-29T05:35:15;22.67;;;19.08;;
60088;SDS011;45961;53.574;55.878;2022-07-29T05:36:17;24.52;;;20.33;;
60088;SDS011;45961;53.574;55.878;2022-07-29T05:37:19;25.77;;;19.80;;
60088;SDS011;45961;53.574;55.878;2022-07-29T05:38:21;23.98;;;20.30;;
60088;SDS011;45961;53.574;55.878;2022-07-29T05:40:23;22.37;;;18.93;;
60088;SDS011;45961;53.574;55.878;2022-07-29T05:41:24;25.73;;;20.02;;
60088;SDS011;45961;53.574;55.878;2022-07-29T05:42:26;25.23;;;21.13;;
60088;SDS011;45961;53.574;55.878;2022-07-29T05:43:27;28.65;;;21.77;;
60088;SDS011;45961;53.574;55.878;2022-07-29T05:44:28;25.67;;;20.88;;
60088;SDS011;45961;53.574;55.878;2022-07-29T05:45:29;25.77;;;19.92;;
60088;SDS011;45961;53.574;55.878;2022-07-29T05:46:30;27.02;;;19.23;;
60088;SDS011;45961;53.574;55.878;2022-07-29T05:47:31;22.55;;;19.08;;
60088;SDS011;45961;53.574;55.878;2022-07-29T05:48:32;23.05;;;19.20;;
60088;SDS011;45961;53.574;55.878;2022-07-29T05:49:33;21.35;;;19.13;;
60088;SDS011;45961;53.574;55.878;2022-07-29T05:50:34;24.33;;;18.27;;
60088;SDS011;45961;53.574;55.878;2022-07-29T05:51:35;25.10;;;18.50;;
60088;SDS011;45961;53.574;55.878;2022-07-29T05:53:37;19.43;;;16.13;;
60088;SDS011;45961;53.574;55.878;2022-07-29T05:54:38;24.30;;;17.10;;
60088;SDS011;45961;53.574;55.878;2022-07-29T05:55:40;22.08;;;17.63;;
60088;SDS011;45961;53.574;55.878;2022-07-29T05:57:41;18.97;;;16.90;;
60088;SDS011;45961;53.574;55.878;2022-07-29T05:58:43;19.88;;;16.52;;
60088;SDS011;45961;53.574;55.878;2022-07-29T05:59:45;22.65;;;17.30;;
60088;SDS011;45961;53.574;55.878;2022-07-29T06:00:46;23.30;;;16.55;;
60088;SDS011;45961;53.574;55.878;2022-07-29T06:01:47;18.95;;;16.90;;
60088;SDS011;45961;53.574;55.878;2022-07-29T06:02:48;24.50;;;17.17;;
60088;SDS011;45961;53.574;55.878;2022-07-29T06:03:49;20.13;;;17.77;;
60088;SDS011;45961;53.574;55.878;2022-07-29T06:05:51;19.07;;;16.23;;
60088;SDS011;45961;53.574;55.878;2022-07-29T06:06:52;20.30;;;18.10;;
60088;SDS011;45961;53.574;55.878;2022-07-29T06:07:53;19.08;;;17.08;;
60088;SDS011;45961;53.574;55.878;2022-07-29T06:08:54;20.25;;;16.88;;
60088;SDS011;45961;53.574;55.878;2022-07-29T06:09:55;22.17;;;16.55;;
60088;SDS011;45961;53.574;55.878;2022-07-29T06:10:56;18.38;;;16.48;;
60088;SDS011;45961;53.574;55.878;2022-07-29T06:11:57;20.23;;;17.13;;
60088;SDS011;45961;53.574;55.878;2022-07-29T06:12:58;19.17;;;17.00;;
60088;SDS011;45961;53.574;55.878;2022-07-29T06:13:59;22.67;;;18.35;;
60088;SDS011;45961;53.574;55.878;2022-07-29T06:15:00;22.20;;;17.38;;
60088;SDS011;45961;53.574;55.878;2022-07-29T06:16:01;18.15;;;15.68;;
60088;SDS011;45961;53.574;55.878;2022-07-29T06:17:02;19.80;;;17.55;;
60088;SDS011;45961;53.574;55.878;2022-07-29T06:18:06;19.38;;;16.45;;
60088;SDS011;45961;53.574;55.878;2022-07-29T06:19:09;17.50;;;15.63;;
60088;SDS011;45961;53.574;55.878;2022-07-29T06:21:11;19.07;;;15.73;;
60088;SDS011;45961;53.574;55.878;2022-07-29T06:22:14;22.60;;;17.30;;
60088;SDS011;45961;53.574;55.878;2022-07-29T06:23:17;27.08;;;17.83;;
60088;SDS011;45961;53.574;55.878;2022-07-29T06:24:18;21.02;;;17.55;;
60088;SDS011;45961;53.574;55.878;2022-07-29T06:25:19;22.95;;;19.48;;
60088;SDS011;45961;53.574;55.878;2022-07-29T06:27:21;31.07;;;19.23;;
60088;SDS011;45961;53.574;55.878;2022-07-29T06:28:22;26.67;;;18.38;;
60088;SDS011;45961;53.574;55.878;2022-07-29T06:29:23;22.20;;;18.25;;
60088;SDS011;45961;53.574;55.878;2022-07-29T06:30:24;20.35;;;17.13;;
60088;SDS011;45961;53.574;55.878;2022-07-29T06:31:25;36.28;;;18.85;;
60088;SDS011;45961;53.574;55.878;2022-07-29T06:32:26;26.35;;;18.90;;
60088;SDS011;45961;53.574;55.878;2022-07-29T06:33:27;29.20;;;19.90;;
60088;SDS011;45961;53.574;55.878;2022-07-29T06:34:28;31.88;;;22.60;;
60088;SDS011;45961;53.574;55.878;2022-07-29T06:35:29;29.52;;;20.38;;